createdAt,value
2023-03-06T00:02:04.786Z,52712.81
2023-03-06T00:04:31.124Z,52733.16
2023-03-06T00:06:57.704Z,52737.22
2023-03-06T00:09:24.036Z,52725.03
2023-03-06T00:11:50.462Z,52759.63
2023-03-06T00:14:16.930Z,52684.31
2023-03-06T00:16:43.356Z,52708.75
2023-03-06T00:19:09.765Z,52706.72
2023-03-06T00:21:36.157Z,52759.63
2023-03-06T00:24:02.529Z,52743.34
2023-03-06T00:26:29.001Z,52753.50
2023-03-06T00:28:55.386Z,52714.84
2023-03-06T00:31:21.741Z,52731.13
2023-03-06T00:33:48.155Z,52723.00
2023-03-06T00:36:14.705Z,52696.53
2023-03-06T00:38:41.041Z,52696.53
2023-03-06T00:41:08.265Z,52741.31
2023-03-06T00:43:34.626Z,52694.50
2023-03-06T00:46:01.007Z,52698.56
2023-03-06T00:48:27.979Z,52706.72
2023-03-06T00:50:54.316Z,52712.81
2023-03-06T00:53:20.665Z,52718.91
2023-03-06T00:55:46.997Z,52771.81
2023-03-06T00:58:13.615Z,52741.31
2023-03-06T01:00:40.003Z,52688.41
2023-03-06T01:03:06.367Z,52704.66
2023-03-06T01:05:34.264Z,52729.09
2023-03-06T01:08:00.654Z,52706.72
2023-03-06T01:10:27.395Z,52743.34
2023-03-06T01:12:54.515Z,52714.84
2023-03-06T01:15:21.486Z,52704.66
2023-03-06T01:17:48.055Z,52688.41
2023-03-06T01:20:16.449Z,52725.03
2023-03-06T01:22:43.165Z,52708.75
2023-03-06T01:25:10.238Z,52708.75
2023-03-06T01:27:36.617Z,52731.13
2023-03-06T01:30:03.184Z,52706.72
2023-03-06T01:32:30.792Z,52718.91
2023-03-06T01:34:57.688Z,52720.94
2023-03-06T01:37:24.069Z,52737.22
2023-03-06T01:39:50.432Z,52747.41
2023-03-06T01:42:16.919Z,52704.66
2023-03-06T01:45:01.998Z,52765.72
2023-03-06T01:47:28.577Z,52696.53
2023-03-06T01:49:55.351Z,52712.81
2023-03-06T01:52:24.126Z,52741.31
2023-03-06T01:54:52.701Z,52708.75
2023-03-06T01:57:20.620Z,52743.34
2023-03-06T01:59:49.008Z,52698.56
2023-03-06T02:02:15.535Z,52708.75
2023-03-06T02:04:42.559Z,52716.88
2023-03-06T02:07:09.208Z,52716.88
2023-03-06T02:09:36.182Z,52714.84
2023-03-06T02:12:03.544Z,52700.59
2023-03-06T02:14:30.217Z,52704.66
2023-03-06T02:16:56.783Z,52692.47
2023-03-06T02:19:26.250Z,52704.66
2023-03-06T02:21:52.657Z,52739.25
2023-03-06T02:24:23.594Z,52714.84
2023-03-06T02:26:50.197Z,52735.19
2023-03-06T02:29:24.866Z,52714.84
2023-03-06T02:31:51.281Z,52700.59
2023-03-06T02:34:20.440Z,52718.91
2023-03-06T02:36:51.269Z,52720.94
2023-03-06T02:39:20.279Z,52714.84
2023-03-06T02:41:46.663Z,52680.25
2023-03-06T02:44:13.036Z,52708.75
2023-03-06T02:46:39.399Z,52688.41
2023-03-06T02:49:05.787Z,52712.81
2023-03-06T02:51:32.151Z,52688.41
2023-03-06T02:53:58.572Z,52700.59
2023-03-06T02:56:25.026Z,52755.53
2023-03-06T02:58:52.121Z,52696.53
2023-03-06T03:01:18.600Z,52708.75
2023-03-06T03:03:45.042Z,52716.88
2023-03-06T03:06:11.473Z,52684.31
2023-03-06T03:08:37.907Z,52761.66
2023-03-06T03:11:04.500Z,52731.13
2023-03-06T03:13:30.938Z,52712.81
2023-03-06T03:15:58.778Z,52733.16
2023-03-06T03:18:25.334Z,52700.59
2023-03-06T03:20:51.664Z,52743.34
2023-03-06T03:23:18.034Z,52700.59
2023-03-06T03:25:44.415Z,52710.78
2023-03-06T03:28:10.856Z,52700.59
2023-03-06T03:30:38.738Z,52745.38
2023-03-06T03:33:05.154Z,52745.38
2023-03-06T03:35:31.499Z,52686.34
2023-03-06T03:37:57.924Z,52704.66
2023-03-06T03:40:24.275Z,52735.19
2023-03-06T03:42:50.666Z,52763.69
2023-03-06T03:45:17.034Z,52733.16
2023-03-06T03:47:43.393Z,52716.88
2023-03-06T03:50:10.628Z,52765.72
2023-03-06T03:52:37.091Z,52775.91
2023-03-06T03:55:04.045Z,52690.44
2023-03-06T03:57:30.457Z,52749.44
2023-03-06T03:59:57.117Z,52731.13
2023-03-06T04:02:23.869Z,52725.03
2023-03-06T04:04:50.482Z,52688.41
2023-03-06T04:07:16.895Z,52725.03
2023-03-06T04:09:43.400Z,52743.34
2023-03-06T04:12:09.821Z,52727.06
2023-03-06T04:14:36.222Z,52743.34
2023-03-06T04:17:02.594Z,52718.91
2023-03-06T04:19:29.008Z,52747.41
2023-03-06T04:21:55.370Z,52708.75
2023-03-06T04:24:21.735Z,52737.22
2023-03-06T04:26:48.149Z,52718.91
2023-03-06T04:29:14.592Z,52700.59
2023-03-06T04:31:40.950Z,52757.59
2023-03-06T04:34:07.420Z,52694.50
2023-03-06T04:36:34.616Z,52680.25
2023-03-06T04:39:01.548Z,52712.81
2023-03-06T04:41:27.986Z,52733.16
2023-03-06T04:43:54.532Z,52723.00
2023-03-06T04:46:20.890Z,52747.41
2023-03-06T04:48:47.309Z,52737.22
2023-03-06T04:51:14.085Z,52725.03
2023-03-06T04:53:40.469Z,52731.13
2023-03-06T04:56:07.036Z,52727.06
2023-03-06T04:58:33.622Z,52712.81
2023-03-06T05:01:00.041Z,52708.75
2023-03-06T05:03:26.440Z,52720.94
2023-03-06T05:05:52.813Z,52747.41
2023-03-06T05:08:19.254Z,52731.13
2023-03-06T05:10:45.669Z,52725.03
2023-03-06T05:13:12.108Z,52763.69
2023-03-06T05:15:42.081Z,52714.84
2023-03-06T05:18:08.675Z,52684.31
2023-03-06T05:20:35.118Z,52729.09
2023-03-06T05:23:01.492Z,52739.25
2023-03-06T05:25:27.925Z,52741.31
2023-03-06T05:27:54.289Z,52694.50
2023-03-06T05:30:23.132Z,52710.78
2023-03-06T05:32:49.782Z,52737.22
2023-03-06T05:35:17.518Z,52761.66
2023-03-06T05:37:43.899Z,52745.38
2023-03-06T05:40:11.282Z,52716.88
2023-03-06T05:42:37.782Z,52755.53
2023-03-06T05:45:04.683Z,52733.16
2023-03-06T05:47:31.386Z,52737.22
2023-03-06T05:49:57.892Z,52716.88
2023-03-06T05:52:24.365Z,52735.19
2023-03-06T05:54:51.823Z,52739.25
2023-03-06T05:57:22.208Z,52708.75
2023-03-06T05:59:49.300Z,52729.09
2023-03-06T06:02:16.153Z,52723.00
2023-03-06T06:04:42.694Z,52720.94
2023-03-06T06:07:12.575Z,52718.91
2023-03-06T06:09:38.981Z,52733.16
2023-03-06T06:12:05.583Z,52743.34
2023-03-06T06:14:34.327Z,52757.59
2023-03-06T06:17:00.782Z,52706.72
2023-03-06T06:19:31.029Z,52737.22
2023-03-06T06:21:57.790Z,52749.44
2023-03-06T06:24:25.308Z,52731.13
2023-03-06T06:26:52.683Z,52739.25
2023-03-06T06:29:19.392Z,52727.06
2023-03-06T06:31:45.841Z,52723.00
2023-03-06T06:34:12.464Z,52720.94
2023-03-06T06:36:39.235Z,52751.47
2023-03-06T06:39:06.358Z,52700.59
2023-03-06T06:41:53.062Z,52745.38
2023-03-06T06:44:20.289Z,52729.09
2023-03-06T06:49:33.181Z,52741.31
2023-03-06T06:51:59.693Z,52757.59
2023-03-06T06:54:27.247Z,52737.22
2023-03-06T06:56:53.771Z,52690.44
2023-03-06T06:59:20.508Z,52688.41
2023-03-06T07:01:46.962Z,52708.75
2023-03-06T07:04:14.125Z,52718.91
2023-03-06T07:06:42.843Z,52723.00
2023-03-06T07:09:09.547Z,52716.88
2023-03-06T07:11:37.327Z,52688.41
2023-03-06T07:14:03.685Z,52735.19
2023-03-06T07:16:30.133Z,52696.53
2023-03-06T07:18:56.562Z,52733.16
2023-03-06T07:21:23.247Z,52706.72
2023-03-06T07:23:50.464Z,52692.47
2023-03-06T07:26:16.862Z,52763.69
2023-03-06T07:28:52.287Z,52718.91
2023-03-06T07:31:22.053Z,52706.72
2023-03-06T07:33:51.905Z,52712.81
2023-03-06T07:36:18.360Z,52659.91
2023-03-06T07:38:44.983Z,52670.06
2023-03-06T07:41:13.698Z,52694.50
2023-03-06T07:43:41.160Z,52686.34
2023-03-06T07:46:07.791Z,52700.59
2023-03-06T07:48:34.346Z,52692.47
2023-03-06T07:51:02.103Z,52651.75
2023-03-06T07:53:29.049Z,52680.25
2023-03-06T07:55:56.120Z,52694.50
2023-03-06T07:58:22.780Z,52670.06
2023-03-06T08:00:49.131Z,52682.28
2023-03-06T08:03:16.089Z,52684.31
2023-03-06T08:05:42.745Z,52670.06
2023-03-06T08:08:09.149Z,52668.03
2023-03-06T08:10:35.526Z,52635.47
2023-03-06T08:13:01.898Z,52690.44
2023-03-06T08:15:28.276Z,52678.22
2023-03-06T08:17:54.712Z,52651.75
2023-03-06T08:20:21.133Z,52684.31
2023-03-06T08:22:49.020Z,52666.00
2023-03-06T08:25:15.669Z,52680.25
2023-03-06T08:27:42.173Z,52661.94
2023-03-06T08:30:08.929Z,52619.22
2023-03-06T08:32:36.409Z,52657.88
2023-03-06T08:35:04.201Z,52663.97
2023-03-06T08:37:30.790Z,52647.69
2023-03-06T08:39:57.296Z,52678.22
2023-03-06T08:42:23.734Z,52659.91
2023-03-06T08:44:50.591Z,52672.13
2023-03-06T08:47:17.002Z,52645.66
2023-03-06T08:49:43.393Z,52696.53
2023-03-06T08:52:09.853Z,52657.88
2023-03-06T08:54:36.263Z,52676.19
2023-03-06T08:57:04.714Z,52661.94
2023-03-06T08:59:31.062Z,52674.16
2023-03-06T09:01:57.698Z,52700.59
2023-03-06T09:04:24.152Z,52682.28
2023-03-06T09:06:50.620Z,52659.91
2023-03-06T09:09:16.971Z,52670.06
2023-03-06T09:11:43.688Z,52704.66
2023-03-06T09:14:10.121Z,52659.91
2023-03-06T09:16:36.538Z,52649.72
2023-03-06T09:19:03.009Z,52682.28
2023-03-06T09:21:29.430Z,52663.97
2023-03-06T09:23:55.932Z,52645.66
2023-03-06T09:26:28.027Z,52615.13
2023-03-06T09:28:59.381Z,52607.00
2023-03-06T09:31:25.775Z,52651.75
2023-03-06T09:33:52.136Z,52668.03
2023-03-06T09:36:19.944Z,52657.88
2023-03-06T09:38:48.234Z,52659.91
2023-03-06T09:41:20.702Z,52678.22
2023-03-06T09:43:48.477Z,52657.88
2023-03-06T09:46:38.300Z,52655.84
2023-03-06T09:49:30.255Z,52649.72
2023-03-06T09:52:15.600Z,52651.75
2023-03-06T09:54:46.085Z,52672.13
2023-03-06T09:57:21.126Z,52641.59
2023-03-06T09:59:48.361Z,52645.66
2023-03-06T10:02:18.876Z,52627.34
2023-03-06T10:04:49.148Z,52645.66
2023-03-06T10:07:20.365Z,52639.56
2023-03-06T10:09:50.642Z,52613.09
2023-03-06T10:12:24.530Z,52659.91
2023-03-06T10:15:05.476Z,52645.66
2023-03-06T10:17:36.338Z,52668.03
2023-03-06T10:20:09.281Z,52633.44
2023-03-06T10:22:39.527Z,52627.34
2023-03-06T10:25:11.996Z,52651.75
2023-03-06T10:27:49.234Z,52625.31
2023-03-06T10:30:33.675Z,52629.38
2023-03-06T10:33:06.130Z,52615.13
2023-03-06T10:35:37.155Z,52613.09
2023-03-06T10:38:22.262Z,52609.03
2023-03-06T10:40:52.120Z,52641.59
2023-03-06T10:43:18.544Z,52629.38
2023-03-06T10:45:49.442Z,52627.34
2023-03-06T10:48:18.305Z,52625.31
2023-03-06T10:50:45.417Z,52623.28
2023-03-06T10:53:23.306Z,52672.13
2023-03-06T10:55:54.047Z,52607.00
2023-03-06T10:58:27.923Z,52637.53
2023-03-06T11:01:07.039Z,52617.16
2023-03-06T11:03:34.701Z,52627.34
2023-03-06T11:06:13.211Z,52647.69
2023-03-06T11:08:40.894Z,52633.44
2023-03-06T11:11:15.906Z,52641.59
2023-03-06T11:13:44.930Z,52619.22
2023-03-06T11:16:40.742Z,52651.75
2023-03-06T11:19:18.336Z,52682.28
2023-03-06T11:21:58.393Z,52666.00
2023-03-06T11:24:24.954Z,52704.66
2023-03-06T11:26:54.654Z,52635.47
2023-03-06T11:29:35.264Z,52682.28
2023-03-06T11:32:10.965Z,52649.72
2023-03-06T11:34:44.530Z,52700.59
2023-03-06T11:37:23.428Z,52643.63
2023-03-06T11:40:08.705Z,52655.84
2023-03-06T11:42:40.722Z,52668.03
2023-03-06T11:45:19.324Z,52653.81
2023-03-06T11:48:08.723Z,52702.63
2023-03-06T11:50:36.637Z,52649.72
2023-03-06T11:53:10.167Z,52651.75
2023-03-06T11:55:44.684Z,52657.88
2023-03-06T11:58:19.980Z,52659.91
2023-03-06T12:00:53.427Z,52655.84
2023-03-06T12:03:31.559Z,52655.84
2023-03-06T12:06:03.803Z,52655.84
2023-03-06T12:08:48.844Z,52676.19
2023-03-06T12:11:29.721Z,52661.94
2023-03-06T12:14:20.900Z,52615.13
2023-03-06T12:17:03.997Z,52619.22
2023-03-06T12:19:46.760Z,52633.44
2023-03-06T12:22:13.219Z,52641.59
2023-03-06T12:24:53.575Z,52617.16
2023-03-06T12:27:27.315Z,52615.13
2023-03-06T12:30:01.952Z,52619.22
2023-03-06T12:32:35.235Z,52649.72
2023-03-06T12:35:03.071Z,52598.84
2023-03-06T12:37:30.447Z,52604.97
2023-03-06T12:40:07.020Z,52623.28
2023-03-06T12:42:36.595Z,52578.50
2023-03-06T12:45:18.599Z,52607.00
2023-03-06T12:47:47.219Z,52613.09
2023-03-06T12:50:23.359Z,52588.69
2023-03-06T12:52:50.080Z,52586.66
2023-03-06T12:55:21.191Z,52592.75
2023-03-06T12:57:49.452Z,52598.84
2023-03-06T13:00:36.116Z,52592.75
2023-03-06T13:03:15.000Z,52598.84
2023-03-06T13:05:41.339Z,52582.56
2023-03-06T13:08:16.803Z,52588.69
2023-03-06T13:10:43.980Z,52613.09
2023-03-06T13:13:13.352Z,52588.69
2023-03-06T13:15:39.827Z,52615.13
2023-03-06T13:18:21.433Z,52637.53
2023-03-06T13:20:52.476Z,52611.06
2023-03-06T13:23:35.228Z,52631.41
2023-03-06T13:26:01.998Z,52619.22
2023-03-06T13:28:40.639Z,52639.56
2023-03-06T13:31:10.600Z,52619.22
2023-03-06T13:33:39.146Z,52643.63
2023-03-06T13:36:24.233Z,52639.56
2023-03-06T13:38:55.347Z,52633.44
2023-03-06T13:41:28.028Z,52647.69
2023-03-06T13:43:55.595Z,52594.78
2023-03-06T13:46:26.006Z,52613.09
2023-03-06T13:49:07.664Z,52623.28
2023-03-06T13:51:39.044Z,52635.47
2023-03-06T13:54:05.428Z,52631.41
2023-03-06T13:56:40.958Z,52625.31
2023-03-06T13:59:24.217Z,52617.16
2023-03-06T14:02:01.903Z,52609.03
2023-03-06T14:04:33.195Z,52574.44
2023-03-06T14:07:06.480Z,52602.94
2023-03-06T14:09:35.782Z,52602.94
2023-03-06T14:12:07.813Z,52617.16
2023-03-06T14:14:42.997Z,52643.63
2023-03-06T14:17:18.407Z,52633.44
2023-03-06T14:19:44.930Z,52596.81
2023-03-06T14:22:17.149Z,52615.13
2023-03-06T14:24:46.098Z,52647.69
2023-03-06T14:27:19.287Z,52609.03
2023-03-06T14:29:49.872Z,52613.09
2023-03-06T14:32:19.417Z,52617.16
2023-03-06T14:34:46.861Z,52623.28
2023-03-06T14:37:19.777Z,52655.84
2023-03-06T14:39:46.884Z,52639.56
2023-03-06T14:42:20.220Z,52627.34
2023-03-06T14:44:47.755Z,52625.31
2023-03-06T14:47:28.143Z,52619.22
2023-03-06T14:50:13.338Z,52643.63
2023-03-06T14:52:39.890Z,52600.88
2023-03-06T14:55:10.929Z,52631.41
2023-03-06T14:57:37.391Z,52659.91
2023-03-06T15:00:04.692Z,52623.28
2023-03-06T15:02:33.009Z,52609.03
2023-03-06T15:05:12.451Z,52615.13
2023-03-06T15:07:38.957Z,52625.31
2023-03-06T15:10:10.468Z,52627.34
2023-03-06T15:12:38.624Z,52651.75
2023-03-06T15:15:08.402Z,52627.34
2023-03-06T15:17:37.852Z,52611.06
2023-03-06T15:20:08.041Z,52625.31
2023-03-06T15:22:38.980Z,52623.28
2023-03-06T15:25:17.776Z,52627.34
2023-03-06T15:27:48.574Z,52633.44
2023-03-06T15:30:31.411Z,52619.22
2023-03-06T15:33:18.149Z,52635.47
2023-03-06T15:35:55.066Z,52625.31
2023-03-06T15:38:29.842Z,52663.97
2023-03-06T15:40:57.773Z,52621.25
2023-03-06T15:43:24.580Z,52625.31
2023-03-06T15:45:53.148Z,52684.31
2023-03-06T15:48:19.616Z,52659.91
2023-03-06T15:50:46.133Z,52672.13
2023-03-06T15:53:12.576Z,52672.13
2023-03-06T15:55:39.039Z,52682.28
2023-03-06T15:58:05.494Z,52704.66
2023-03-06T16:00:34.219Z,52657.88
2023-03-06T16:03:01.645Z,52645.66
2023-03-06T16:05:28.614Z,52712.81
2023-03-06T16:07:55.006Z,52686.34
2023-03-06T16:10:26.564Z,52694.50
2023-03-06T16:12:57.485Z,52706.72
2023-03-06T16:15:29.231Z,52725.03
2023-03-06T16:17:59.885Z,52690.44
2023-03-06T16:20:27.203Z,52678.22
2023-03-06T16:22:56.381Z,52696.53
2023-03-06T16:25:24.005Z,52696.53
2023-03-06T16:27:55.482Z,52753.50
2023-03-06T16:30:22.858Z,52718.91
2023-03-06T16:32:49.252Z,52688.41
2023-03-06T16:35:15.706Z,52716.88
2023-03-06T16:37:42.222Z,52696.53
2023-03-06T16:40:20.755Z,52706.72
2023-03-06T16:42:47.143Z,52698.56
2023-03-06T16:45:13.934Z,52696.53
2023-03-06T16:47:40.787Z,52694.50
2023-03-06T16:50:07.859Z,52743.34
2023-03-06T16:52:34.329Z,52706.72
2023-03-06T16:55:00.711Z,52700.59
2023-03-06T16:57:31.580Z,52753.50
2023-03-06T16:59:58.058Z,52714.84
2023-03-06T17:02:24.704Z,52712.81
2023-03-06T17:04:51.128Z,52723.00
2023-03-06T17:07:17.511Z,52723.00
2023-03-06T17:09:44.029Z,52720.94
2023-03-06T17:12:10.536Z,52716.88
2023-03-06T17:14:38.458Z,52739.25
2023-03-06T17:17:05.005Z,52672.13
2023-03-06T17:19:31.423Z,52716.88
2023-03-06T17:21:57.820Z,52739.25
2023-03-06T17:24:24.183Z,52696.53
2023-03-06T17:26:50.689Z,52710.78
2023-03-06T17:29:17.033Z,52698.56
2023-03-06T17:31:43.423Z,52733.16
2023-03-06T17:34:09.746Z,52745.38
2023-03-06T17:36:36.135Z,52674.16
2023-03-06T17:39:03.021Z,52727.06
2023-03-06T17:41:29.955Z,52702.63
2023-03-06T17:43:57.870Z,52686.34
2023-03-06T17:46:24.486Z,52688.41
2023-03-06T17:48:50.890Z,52733.16
2023-03-06T17:51:17.283Z,52723.00
2023-03-06T17:53:43.698Z,52720.94
2023-03-06T17:56:12.157Z,52686.34
2023-03-06T17:58:38.519Z,52737.22
2023-03-06T18:01:12.812Z,52727.06
2023-03-06T18:03:39.577Z,52712.81
2023-03-06T18:06:09.477Z,52735.19
2023-03-06T18:08:36.901Z,52688.41
2023-03-06T18:11:04.875Z,52706.72
2023-03-06T18:13:31.886Z,52725.03
2023-03-06T18:15:58.659Z,52690.44
2023-03-06T18:18:25.210Z,52716.88
2023-03-06T18:20:51.898Z,52702.63
2023-03-06T18:23:18.327Z,52708.75
2023-03-06T18:25:44.774Z,52706.72
2023-03-06T18:28:11.465Z,52775.91
2023-03-06T18:30:39.169Z,52720.94
2023-03-06T18:33:05.562Z,52733.16
2023-03-06T18:35:32.954Z,52720.94
2023-03-06T18:37:59.428Z,52716.88
2023-03-06T18:40:25.803Z,52733.16
2023-03-06T18:42:52.694Z,52741.31
2023-03-06T18:45:19.151Z,52716.88
2023-03-06T18:47:45.767Z,52718.91
2023-03-06T18:50:17.231Z,52718.91
2023-03-06T18:52:43.859Z,52718.91
2023-03-06T18:55:10.324Z,52727.06
2023-03-06T18:57:36.767Z,52747.41
2023-03-06T19:00:03.552Z,52747.41
2023-03-06T19:02:29.924Z,52706.72
2023-03-06T19:04:57.479Z,52757.59
2023-03-06T19:07:24.228Z,52773.84
2023-03-06T19:09:50.666Z,52706.72
2023-03-06T19:12:17.479Z,52700.59
2023-03-06T19:14:44.314Z,52723.00
2023-03-06T19:17:10.673Z,52725.03
2023-03-06T19:19:37.098Z,52720.94
2023-03-06T19:22:03.502Z,52723.00
2023-03-06T19:24:29.877Z,52755.53
2023-03-06T19:26:56.297Z,52702.63
2023-03-06T19:29:22.663Z,52704.66
2023-03-06T19:31:50.910Z,52727.06
2023-03-06T19:34:17.451Z,52723.00
2023-03-06T19:36:44.592Z,52737.22
2023-03-06T19:39:10.969Z,52729.09
2023-03-06T19:41:37.342Z,52708.75
2023-03-06T19:44:05.734Z,52759.63
2023-03-06T19:46:32.658Z,52723.00
2023-03-06T19:48:59.982Z,52712.81
2023-03-06T19:51:27.093Z,52712.81
2023-03-06T19:53:53.704Z,52737.22
2023-03-06T19:56:21.673Z,52743.34
2023-03-06T19:58:48.622Z,52733.16
2023-03-06T20:01:16.477Z,52731.13
2023-03-06T20:03:43.449Z,52735.19
2023-03-06T20:06:14.012Z,52690.44
2023-03-06T20:08:40.410Z,52741.31
2023-03-06T20:11:06.833Z,52743.34
2023-03-06T20:13:33.254Z,52769.78
2023-03-06T20:16:02.501Z,52743.34
2023-03-06T20:18:28.951Z,52747.41
2023-03-06T20:20:59.409Z,52769.78
2023-03-06T20:23:25.932Z,52714.84
2023-03-06T20:25:52.410Z,52749.44
2023-03-06T20:28:18.956Z,52727.06
2023-03-06T20:30:45.379Z,52716.88
2023-03-06T20:33:11.757Z,52712.81
2023-03-06T20:35:42.393Z,52714.84
2023-03-06T20:38:09.253Z,52720.94
2023-03-06T20:40:39.386Z,52733.16
2023-03-06T20:43:05.977Z,52708.75
2023-03-06T20:45:32.386Z,52771.81
2023-03-06T20:47:58.773Z,52720.94
2023-03-06T20:50:26.149Z,52714.84
2023-03-06T20:52:56.643Z,52733.16
2023-03-06T20:55:23.139Z,52718.91
2023-03-06T20:57:50.398Z,52743.34
2023-03-06T21:00:17.496Z,52757.59
2023-03-06T21:02:43.950Z,52759.63
2023-03-06T21:05:10.815Z,52763.69
2023-03-06T21:07:38.302Z,52763.69
2023-03-06T21:10:04.946Z,52743.34
2023-03-06T21:12:31.339Z,52759.63
2023-03-06T21:14:59.157Z,52739.25
2023-03-06T21:17:25.633Z,52725.03
2023-03-06T21:19:52.837Z,52806.41
2023-03-06T21:22:19.285Z,52737.22
2023-03-06T21:24:45.717Z,52757.59
2023-03-06T21:27:12.099Z,52737.22
2023-03-06T21:29:38.491Z,52741.31
2023-03-06T21:32:05.047Z,52745.38
2023-03-06T21:34:31.552Z,52737.22
2023-03-06T21:36:57.949Z,52733.16
2023-03-06T21:39:24.338Z,52718.91
2023-03-06T21:41:50.746Z,52763.69
2023-03-06T21:44:17.164Z,52755.53
2023-03-06T21:46:43.497Z,52747.41
2023-03-06T21:49:10.012Z,52747.41
2023-03-06T21:51:36.363Z,52745.38
2023-03-06T21:54:03.091Z,52759.63
2023-03-06T21:56:29.583Z,52743.34
2023-03-06T21:58:56.568Z,52731.13
2023-03-06T22:01:25.054Z,52720.94
2023-03-06T22:03:51.620Z,52751.47
2023-03-06T22:06:19.349Z,52759.63
2023-03-06T22:08:46.271Z,52690.44
2023-03-06T22:11:13.744Z,52751.47
2023-03-06T22:13:40.583Z,52737.22
2023-03-06T22:16:07.589Z,52755.53
2023-03-06T22:18:34.418Z,52733.16
2023-03-06T22:21:00.889Z,52765.72
2023-03-06T22:23:27.311Z,52765.72
2023-03-06T22:25:53.740Z,52743.34
2023-03-06T22:28:20.173Z,52779.97
2023-03-06T22:30:46.670Z,52759.63
2023-03-06T22:33:13.169Z,52755.53
2023-03-06T22:35:39.593Z,52743.34
2023-03-06T22:38:06.082Z,52755.53
2023-03-06T22:40:32.976Z,52775.91
2023-03-06T22:42:59.350Z,52763.69
2023-03-06T22:45:25.760Z,52737.22
2023-03-06T22:47:57.121Z,52782.00
2023-03-06T22:50:28.809Z,52800.31
2023-03-06T22:52:55.167Z,52769.78
2023-03-06T22:55:21.613Z,52767.75
2023-03-06T22:57:47.965Z,52725.03
2023-03-06T23:00:14.683Z,52769.78
2023-03-06T23:02:41.070Z,52757.59
2023-03-06T23:05:07.701Z,52735.19
2023-03-06T23:07:34.075Z,52761.66
2023-03-06T23:10:00.607Z,52757.59
2023-03-06T23:12:26.955Z,52757.59
2023-03-06T23:14:53.518Z,52729.09
2023-03-06T23:17:19.936Z,52755.53
2023-03-06T23:19:48.920Z,52761.66
2023-03-06T23:22:15.314Z,52753.50
2023-03-06T23:24:41.690Z,52767.75
2023-03-06T23:27:08.122Z,52729.09
2023-03-06T23:29:34.537Z,52763.69
2023-03-06T23:32:01.489Z,52814.56
2023-03-06T23:34:28.023Z,52751.47
2023-03-06T23:36:54.397Z,52751.47
2023-03-06T23:39:20.790Z,52765.72
2023-03-06T23:41:47.206Z,52710.78
2023-03-06T23:44:13.598Z,52745.38
2023-03-06T23:46:40.120Z,52753.50
2023-03-06T23:49:07.372Z,52788.09
2023-03-06T23:51:33.766Z,52733.16
2023-03-06T23:54:00.538Z,52765.72
2023-03-06T23:56:28.294Z,52729.09
2023-03-06T23:58:55.335Z,52771.81
